Time;durP1;ratioP1;P1;durP2;ratioP2;P2;SDS_P1;SDS_P2;PMS_P1;PMS_P2;Temp;Humidity;BMP_temperature;BMP_pressure;BME280_temperature;BME280_humidity;BME280_pressure;Samples;Min_cycle;Max_cycle;Signal;HPM_P1;HPM_P2
2022/04/28 00:00:00;;;;;;;;;38.00;33.50;;;;;15.48;48.85;101837.84;5001793;28;45469;-82
2022/04/28 00:02:26;;;;;;;;;34.50;32.00;;;;;15.46;49.27;101845.09;5017340;28;45468;-84
2022/04/28 00:04:52;;;;;;;;;32.50;31.00;;;;;15.38;48.93;101823.25;5005019;28;46076;-83
2022/04/28 00:07:17;;;;;;;;;35.00;32.75;;;;;15.33;48.88;101824.38;4996856;28;45971;-82
2022/04/28 00:09:42;;;;;;;;;35.25;32.00;;;;;15.29;48.93;101824.63;4999062;28;45475;-83
2022/04/28 00:12:10;;;;;;;;;40.75;35.50;;;;;15.31;49.15;101831.63;5002167;28;48291;-82
2022/04/28 00:14:36;;;;;;;;;35.50;32.00;;;;;15.28;49.11;101831.81;5001801;28;46587;-84
2022/04/28 00:17:02;;;;;;;;;36.00;33.25;;;;;15.23;49.14;101828.56;5001724;28;45800;-83
2022/04/28 00:19:27;;;;;;;;;39.75;34.25;;;;;15.24;49.35;101829.41;5000271;28;45559;-81
2022/04/28 00:21:52;;;;;;;;;35.50;33.50;;;;;15.16;49.18;101826.31;5003390;28;45459;-83
2022/04/28 00:24:17;;;;;;;;;35.75;31.75;;;;;15.16;49.10;101847.78;5000938;28;45470;-81
2022/04/28 00:26:43;;;;;;;;;32.25;30.00;;;;;15.08;49.40;101821.38;4982235;28;52534;-83
2022/04/28 00:29:08;;;;;;;;;30.25;30.25;;;;;15.10;49.22;101832.88;5004161;28;50302;-81
2022/04/28 00:31:34;;;;;;;;;38.50;32.00;;;;;15.10;49.27;101833.78;4999947;28;45501;-84
2022/04/28 00:33:59;;;;;;;;;41.25;34.00;;;;;15.05;49.49;101832.28;4998462;28;47045;-82
2022/04/28 00:36:25;;;;;;;;;39.50;32.75;;;;;15.02;49.34;101824.44;4998405;28;45475;-82
2022/04/28 00:38:50;;;;;;;;;39.50;32.00;;;;;14.97;49.18;101821.16;4995884;28;45906;-82
2022/04/28 00:41:15;;;;;;;;;34.25;32.00;;;;;14.93;49.42;101816.91;5001890;28;45518;-83
2022/04/28 00:43:53;;;;;;;;;34.00;32.00;;;;;14.95;49.20;101828.41;5000695;28;46253;-82
2022/04/28 00:46:19;;;;;;;;;34.75;32.75;;;;;14.83;49.39;101814.75;4997689;28;45768;-82
2022/04/28 00:51:30;;;;;;;;;32.75;30.00;;;;;14.72;49.48;101819.88;4992816;28;45576;-82
2022/04/28 00:53:58;;;;;;;;;34.00;31.00;;;;;14.77;49.85;101822.25;4994590;28;45420;-82
2022/04/28 00:56:25;;;;;;;;;30.50;30.00;;;;;14.67;49.77;101821.91;4969084;28;45494;-82
2022/04/28 00:58:51;;;;;;;;;31.00;29.75;;;;;14.65;49.73;101811.28;4995843;28;45510;-82
2022/04/28 01:01:16;;;;;;;;;34.00;31.50;;;;;14.67;49.69;101821.91;5009295;28;45574;-83
2022/04/28 01:03:42;;;;;;;;;33.50;32.00;;;;;14.62;49.20;101813.25;4991403;28;46651;-82
2022/04/28 01:06:08;;;;;;;;;35.50;32.25;;;;;14.56;49.79;101814.47;4995173;28;45555;-82
2022/04/28 01:08:33;;;;;;;;;29.25;27.75;;;;;14.58;49.96;101825.13;4997400;28;45468;-82
2022/04/28 01:10:59;;;;;;;;;34.75;31.75;;;;;14.57;49.82;101824.25;4994664;28;45540;-82
2022/04/28 01:13:24;;;;;;;;;34.25;32.00;;;;;14.58;49.87;101825.13;4995168;28;45519;-82
2022/04/28 01:15:50;;;;;;;;;36.50;33.00;;;;;14.53;49.95;101819.09;4995293;28;45424;-83
2022/04/28 01:18:16;;;;;;;;;30.50;29.00;;;;;14.53;49.82;101822.66;4995425;28;45490;-82
2022/04/28 01:20:42;;;;;;;;;35.00;31.50;;;;;14.48;49.75;101822.91;4994948;28;45428;-82
2022/04/28 01:23:09;;;;;;;;;36.25;30.00;;;;;14.44;50.07;101821.34;4995291;28;45380;-83
2022/04/28 01:25:34;;;;;;;;;38.00;32.75;;;;;14.46;49.84;101826.63;4995284;28;45582;-82
2022/04/28 01:28:00;;;;;;;;;40.50;33.25;;;;;14.37;49.95;101814.59;4994461;28;45507;-83
2022/04/28 01:30:26;;;;;;;;;37.75;32.75;;;;;14.41;49.96;101821.53;5010265;28;46407;-83
2022/04/28 01:32:52;;;;;;;;;32.75;30.00;;;;;14.39;49.97;101833.28;4994953;28;46425;-83
2022/04/28 01:35:18;;;;;;;;;35.00;31.50;;;;;14.31;50.16;101822.09;4994485;28;45429;-83
2022/04/28 01:37:43;;;;;;;;;36.00;32.25;;;;;14.27;50.16;101821.41;4995559;28;45674;-82
2022/04/28 01:40:11;;;;;;;;;35.50;32.50;;;;;14.25;50.28;101825.97;4994596;28;46277;-82
2022/04/28 01:42:45;;;;;;;;;36.25;31.00;;;;;14.21;50.23;101816.38;4993344;28;47074;-83
2022/04/28 01:45:11;;;;;;;;;33.25;30.50;;;;;14.20;50.38;101817.34;4993416;28;45481;-83
2022/04/28 01:47:37;;;;;;;;;36.00;33.25;;;;;14.18;50.66;101819.22;4994080;28;45380;-83
2022/04/28 01:50:04;;;;;;;;;32.75;31.50;;;;;14.13;50.14;101806.09;4994774;28;45452;-82
2022/04/28 01:55:14;;;;;;;;;33.75;30.50;;;;;14.10;50.67;101813.44;4993257;28;45305;-84
2022/04/28 01:57:40;;;;;;;;;31.75;29.25;;;;;14.05;51.06;101814.53;4994702;28;45477;-83
2022/04/28 02:00:10;;;;;;;;;33.25;31.50;;;;;14.04;50.79;101823.50;4993185;28;45389;-83
2022/04/28 02:02:36;;;;;;;;;28.75;28.75;;;;;13.98;51.07;101826.53;4992332;28;46335;-84
2022/04/28 02:05:05;;;;;;;;;28.00;27.25;;;;;13.95;50.92;101825.81;4993001;28;45794;-81
2022/04/28 02:07:32;;;;;;;;;33.75;29.50;;;;;13.92;51.27;101820.63;4994707;28;45401;-81
2022/04/28 02:09:58;;;;;;;;;30.50;28.75;;;;;13.90;51.32;101817.16;4995041;28;45484;-81
2022/04/28 02:12:25;;;;;;;;;34.75;30.50;;;;;13.88;51.42;101832.41;4994839;28;46135;-81
2022/04/28 02:14:51;;;;;;;;;35.75;32.25;;;;;13.87;51.47;101822.69;4992771;28;45614;-81
2022/04/28 02:17:19;;;;;;;;;31.50;29.00;;;;;13.84;51.43;101832.59;4993897;28;45368;-81
2022/04/28 02:19:44;;;;;;;;;32.50;30.50;;;;;13.73;51.72;101828.75;4995571;28;45467;-81
2022/04/28 02:22:10;;;;;;;;;37.50;34.00;;;;;13.70;51.33;101828.91;4994824;28;45448;-81
2022/04/28 02:24:35;;;;;;;;;33.75;29.50;;;;;13.71;51.67;101831.50;4994529;28;45519;-81
2022/04/28 02:27:00;;;;;;;;;35.25;30.75;;;;;13.66;51.69;101825.50;4994798;28;45628;-81
2022/04/28 02:29:25;;;;;;;;;30.75;28.75;;;;;13.64;51.85;101825.59;4995116;28;45452;-81
2022/04/28 02:31:51;;;;;;;;;26.50;22.50;;;;;13.65;51.70;101829.13;4995024;28;46160;-81
2022/04/28 02:34:16;;;;;;;;;35.25;30.75;;;;;13.56;51.73;101813.56;4994599;28;45394;-81
2022/04/28 02:36:41;;;;;;;;;26.50;24.25;;;;;13.60;51.95;101817.81;4993371;28;45463;-81
2022/04/28 02:39:07;;;;;;;;;30.25;29.00;;;;;13.61;52.07;101833.81;4994896;28;45377;-81
2022/04/28 02:41:32;;;;;;;;;33.50;31.75;;;;;13.57;52.11;101834.03;4994712;28;45435;-81
2022/04/28 02:43:58;;;;;;;;;37.50;31.50;;;;;13.53;52.12;101835.13;4995260;28;45446;-81
2022/04/28 02:46:23;;;;;;;;;32.75;30.25;;;;;13.52;52.09;101838.75;4986828;28;45564;-81
2022/04/28 02:48:49;;;;;;;;;34.75;30.50;;;;;13.47;52.25;101830.97;4990187;28;45558;-81
2022/04/28 02:51:15;;;;;;;;;35.75;27.50;;;;;13.45;52.45;101840.88;4994410;28;46114;-81
2022/04/28 02:53:41;;;;;;;;;34.25;30.25;;;;;13.43;52.23;101832.91;4993899;28;45389;-83
2022/04/28 02:56:06;;;;;;;;;36.50;32.00;;;;;13.41;52.58;101831.25;4990047;28;45693;-82
2022/04/28 02:58:34;;;;;;;;;33.00;29.75;;;;;13.41;52.44;101836.59;4994302;28;45247;-84
2022/04/28 03:01:00;;;;;;;;;32.50;29.00;;;;;13.40;52.68;101840.25;4992522;28;48077;-82
2022/04/28 03:03:25;;;;;;;;;35.00;30.50;;;;;13.36;52.52;101844.00;4994323;28;45556;-82
2022/04/28 03:11:18;;;;;;;;;31.25;29.50;;;;;13.24;53.10;101842.78;4991243;28;45767;-81
2022/04/28 03:13:43;;;;;;;;;32.00;30.50;;;;;13.27;53.16;101852.44;4990360;28;46537;-82
2022/04/28 03:16:09;;;;;;;;;35.00;30.25;;;;;13.28;52.74;101848.88;4993801;28;45452;-81
2022/04/28 03:18:34;;;;;;;;;30.75;30.50;;;;;13.21;53.11;101842.94;4994182;28;45290;-81
2022/04/28 03:21:00;;;;;;;;;33.00;26.75;;;;;13.13;53.25;101845.97;4994298;28;45486;-81
2022/04/28 03:23:25;;;;;;;;;33.25;29.00;;;;;13.11;53.22;101850.53;4994195;28;45725;-82
2022/04/28 03:25:51;;;;;;;;;35.00;31.75;;;;;13.09;53.46;101854.22;4994782;28;45371;-82
2022/04/28 03:28:21;;;;;;;;;33.25;29.50;;;;;13.18;53.25;101859.09;4997597;28;45494;-81
2022/04/28 03:30:47;;;;;;;;;29.00;26.50;;;;;13.12;53.46;101856.75;4997023;28;45367;-81
2022/04/28 03:33:14;;;;;;;;;33.25;30.50;;;;;13.02;53.55;101839.44;5012047;28;45531;-82
2022/04/28 03:35:39;;;;;;;;;31.25;28.00;;;;;13.07;53.37;101854.28;4981036;28;45463;-82
2022/04/28 03:38:05;;;;;;;;;32.75;29.00;;;;;13.05;53.65;101850.81;4998256;28;45722;-81
2022/04/28 03:40:31;;;;;;;;;35.50;32.75;;;;;12.99;53.48;101843.97;4995986;28;47415;-82
2022/04/28 03:42:57;;;;;;;;;34.25;31.00;;;;;12.92;53.99;101839.88;4995757;28;46097;-81
2022/04/28 03:45:24;;;;;;;;;36.25;32.00;;;;;12.97;53.36;101853.00;4996809;28;45395;-81
2022/04/28 03:47:50;;;;;;;;;31.50;30.50;;;;;12.95;53.83;101854.88;4997156;28;45635;-82
2022/04/28 03:50:15;;;;;;;;;36.00;31.50;;;;;12.97;53.68;101859.22;4995955;28;46288;-81
2022/04/28 03:52:41;;;;;;;;;31.75;30.25;;;;;12.93;53.98;101852.28;4996242;28;45808;-82
2022/04/28 03:55:06;;;;;;;;;34.00;30.75;;;;;12.89;54.19;101849.81;4997100;28;45648;-82
2022/04/28 03:57:32;;;;;;;;;37.50;31.75;;;;;12.91;53.98;101858.63;4997184;28;45428;-82
2022/04/28 03:59:57;;;;;;;;;36.75;31.75;;;;;12.88;54.12;101856.13;4996678;28;46092;-82
2022/04/28 04:02:23;;;;;;;;;34.75;31.75;;;;;12.87;54.26;101857.03;4988647;28;45486;-82
2022/04/28 04:04:48;;;;;;;;;37.25;33.75;;;;;12.81;54.24;101865.38;4993061;28;45278;-81
2022/04/28 04:07:14;;;;;;;;;35.75;32.00;;;;;12.79;54.13;101870.78;4996171;28;45321;-81
2022/04/28 04:09:39;;;;;;;;;29.75;28.25;;;;;12.79;54.57;101862.75;4996634;28;45408;-81
2022/04/28 04:12:05;;;;;;;;;42.00;33.50;;;;;12.74;54.38;101862.97;4990942;28;45823;-81
2022/04/28 04:14:32;;;;;;;;;33.50;30.75;;;;;12.75;54.42;101862.06;4994674;28;45388;-81
2022/04/28 04:16:57;;;;;;;;;35.75;33.00;;;;;12.74;54.53;101862.97;4997559;28;45383;-81
2022/04/28 04:19:23;;;;;;;;;31.25;30.75;;;;;12.70;54.83;101872.09;4996523;28;46330;-82
2022/04/28 04:21:49;;;;;;;;;34.00;32.50;;;;;12.70;54.75;101860.50;4994218;28;45392;-82
2022/04/28 04:24:14;;;;;;;;;30.50;28.50;;;;;12.70;54.84;101869.41;4996652;28;45369;-81
2022/04/28 04:26:40;;;;;;;;;32.50;30.25;;;;;12.66;54.95;101872.31;4996681;28;45298;-82
2022/04/28 04:29:05;;;;;;;;;40.25;34.50;;;;;12.72;54.57;101885.34;4996789;28;45540;-81
2022/04/28 04:34:14;;;;;;;;;38.25;32.00;;;;;12.66;55.01;101880.31;4995591;28;45507;-82
2022/04/28 04:36:40;;;;;;;;;38.00;32.50;;;;;12.53;54.83;101864.88;4994759;28;45290;-81
2022/04/28 04:39:05;;;;;;;;;40.00;34.50;;;;;12.51;55.26;101877.41;4993779;28;54058;-82
2022/04/28 04:41:30;;;;;;;;;33.00;31.50;;;;;12.63;55.07;101891.13;4993318;28;45542;-81
2022/04/28 04:43:56;;;;;;;;;42.00;34.75;;;;;12.58;55.00;101884.22;4996453;28;45360;-82
2022/04/28 04:46:21;;;;;;;;;32.25;29.00;;;;;12.64;55.15;101888.41;4987742;28;45416;-81
2022/04/28 04:48:46;;;;;;;;;33.75;32.25;;;;;12.61;55.14;101899.22;4987840;28;51887;-81
2022/04/28 04:51:12;;;;;;;;;34.75;31.50;;;;;12.60;55.35;101892.13;4995303;28;45633;-81
2022/04/28 04:53:37;;;;;;;;;35.50;34.00;;;;;12.60;55.14;101901.97;4995547;28;45533;-81
2022/04/28 04:56:02;;;;;;;;;37.25;32.00;;;;;12.53;55.26;101894.25;4996779;28;45365;-82
2022/04/28 04:58:28;;;;;;;;;37.75;34.75;;;;;12.52;55.48;101894.31;4995271;28;46625;-81
2022/04/28 05:00:54;;;;;;;;;42.00;34.75;;;;;12.53;55.63;101901.38;4995219;28;53971;-81
2022/04/28 05:03:19;;;;;;;;;36.50;34.25;;;;;12.48;55.73;101901.59;4994019;28;45423;-81
2022/04/28 05:05:45;;;;;;;;;43.75;35.00;;;;;12.49;55.66;101892.63;4995715;28;45464;-81
2022/04/28 05:08:12;;;;;;;;;35.25;32.75;;;;;12.48;55.73;101912.28;4995909;28;45452;-81
2022/04/28 05:10:37;;;;;;;;;44.50;36.75;;;;;12.48;55.73;101906.06;4995739;28;45401;-82
2022/04/28 05:13:03;;;;;;;;;43.75;35.00;;;;;12.48;55.71;101912.28;4995147;28;45555;-81
2022/04/28 05:15:29;;;;;;;;;42.50;35.25;;;;;12.48;55.75;101919.41;4995413;28;45492;-81
2022/04/28 05:17:54;;;;;;;;;40.25;35.50;;;;;12.39;55.88;101893.13;4995094;28;45711;-81
2022/04/28 05:20:19;;;;;;;;;44.50;35.75;;;;;12.41;55.84;101905.50;4994259;28;46181;-82
2022/04/28 05:22:45;;;;;;;;;44.75;36.75;;;;;12.38;56.11;101902.06;4995668;28;45390;-81
2022/04/28 05:25:10;;;;;;;;;38.50;34.75;;;;;12.46;56.29;101915.94;4993855;28;45492;-82
2022/04/28 05:27:35;;;;;;;;;43.00;35.00;;;;;12.48;56.06;101909.63;4994827;28;45424;-81
2022/04/28 05:30:01;;;;;;;;;42.50;37.00;;;;;12.44;56.15;101917.84;4995410;28;45417;-81
2022/04/28 05:32:26;;;;;;;;;47.50;37.75;;;;;12.45;56.34;101916.88;4993850;28;45543;-81
2022/04/28 05:34:52;;;;;;;;;46.75;38.00;;;;;12.47;56.23;101928.38;4995491;28;45306;-81
2022/04/28 05:37:18;;;;;;;;;44.75;37.00;;;;;12.51;56.20;101933.50;4995332;28;45365;-82
2022/04/28 05:39:43;;;;;;;;;48.25;39.25;;;;;12.51;56.18;101933.50;5010785;28;45347;-81
2022/04/28 05:42:09;;;;;;;;;42.25;36.25;;;;;12.52;56.30;101943.25;4995125;28;45228;-81
2022/04/28 05:47:20;;;;;;;;;46.75;37.50;;;;;12.53;56.24;101942.31;4993273;28;45701;-81
2022/04/28 05:49:45;;;;;;;;;44.00;38.00;;;;;12.53;56.48;101942.31;4995444;28;45473;-80
2022/04/28 05:52:11;;;;;;;;;40.00;36.75;;;;;12.53;56.31;101949.44;4995392;28;45400;-83
2022/04/28 05:54:36;;;;;;;;;41.50;35.50;;;;;12.53;56.37;101939.66;4994826;28;50430;-81
2022/04/28 05:57:03;;;;;;;;;41.75;35.25;;;;;12.53;56.22;101947.66;4994921;28;46165;-82
2022/04/28 05:59:28;;;;;;;;;46.75;38.00;;;;;12.54;56.30;101957.41;4995273;28;45342;-81
2022/04/28 06:01:54;;;;;;;;;47.00;38.75;;;;;12.61;56.56;101952.66;4995164;28;45489;-82
2022/04/28 06:04:19;;;;;;;;;48.50;40.25;;;;;12.67;56.08;101952.34;4995055;28;45471;-82
2022/04/28 06:06:45;;;;;;;;;47.25;39.50;;;;;12.63;56.32;101952.56;4994597;28;45553;-81
2022/04/28 06:09:10;;;;;;;;;46.25;39.00;;;;;12.60;56.63;101953.56;4995051;28;45344;-82
2022/04/28 06:11:35;;;;;;;;;45.75;39.00;;;;;12.64;56.15;101952.50;4994755;28;45860;-81
2022/04/28 06:14:01;;;;;;;;;47.50;39.50;;;;;12.65;56.43;101962.28;4995764;28;45431;-82
2022/04/28 06:16:26;;;;;;;;;46.25;39.25;;;;;12.71;56.20;101966.47;4994444;28;47332;-82
2022/04/28 06:18:51;;;;;;;;;75.00;59.33;;;;;12.71;56.42;101956.63;4994409;28;56343;-81
2022/04/28 06:21:17;;;;;;;;;47.00;38.25;;;;;12.76;56.34;101967.13;4994867;28;45355;-81
2022/04/28 06:23:43;;;;;;;;;47.00;40.25;;;;;12.78;56.07;101963.44;4995008;28;45596;-82
2022/04/28 06:26:08;;;;;;;;;48.50;39.75;;;;;12.77;56.25;101969.72;4994965;28;46145;-81
2022/04/28 06:28:33;;;;;;;;;47.50;36.50;;;;;12.76;56.32;101970.66;4993228;28;51916;-81
2022/04/28 06:30:59;;;;;;;;;41.75;35.25;;;;;12.86;56.40;101984.47;4993776;28;48543;-81
2022/04/28 06:33:24;;;;;;;;;51.50;39.25;;;;;12.87;56.08;101985.31;4994025;28;45336;-81
2022/04/28 06:35:49;;;;;;;;;45.75;38.50;;;;;12.82;56.35;101980.22;4994652;28;45346;-81
2022/04/28 06:38:15;;;;;;;;;48.00;37.50;;;;;12.76;56.16;101980.47;4994545;28;54777;-82
2022/04/28 06:40:40;;;;;;;;;47.50;38.00;;;;;12.78;56.84;101986.63;4994956;28;45358;-81
2022/04/28 06:43:05;;;;;;;;;51.75;40.75;;;;;12.77;56.70;101983.09;4994571;28;45491;-81
2022/04/28 06:45:31;;;;;;;;;45.25;38.50;;;;;12.85;57.08;101993.44;4992889;28;47630;-81
2022/04/28 06:47:56;;;;;;;;;45.75;38.50;;;;;12.86;56.70;101994.28;4993523;28;45428;-81
2022/04/28 06:50:22;;;;;;;;;51.75;40.75;;;;;12.93;56.77;101991.25;4994665;28;45321;-81
2022/04/28 06:52:47;;;;;;;;;51.50;39.00;;;;;12.99;56.66;101996.34;4994446;28;45410;-82
2022/04/28 06:55:13;;;;;;;;;48.00;40.50;;;;;13.05;56.40;102005.88;4992120;28;48429;-82
2022/04/28 06:57:39;;;;;;;;;48.75;38.00;;;;;13.06;56.28;101996.03;4994360;28;45447;-81
2022/04/28 07:00:07;;;;;;;;;46.25;38.75;;;;;13.15;56.47;102003.63;4994230;28;45512;-81
2022/04/28 07:02:33;;;;;;;;;48.00;39.75;;;;;13.19;55.91;102003.41;4984031;28;45317;-81
2022/04/28 07:04:58;;;;;;;;;48.75;41.25;;;;;13.26;56.51;101997.81;4998185;28;45597;-82
2022/04/28 07:07:24;;;;;;;;;46.50;39.75;;;;;13.25;56.18;101988.03;5012106;28;45297;-81
2022/04/28 07:09:49;;;;;;;;;49.00;40.00;;;;;13.32;56.42;101993.03;4997868;28;45490;-81
2022/04/28 07:12:15;;;;;;;;;47.00;39.75;;;;;13.39;56.03;102001.66;4996287;28;45469;-81
2022/04/28 07:14:43;;;;;;;;;39.75;36.00;;;;;13.44;56.17;101996.94;4997577;28;46691;-82
2022/04/28 07:17:10;;;;;;;;;36.50;34.50;;;;;13.56;55.57;102006.19;4997590;28;45531;-82
2022/04/28 07:19:35;;;;;;;;;44.25;36.75;;;;;13.50;55.81;102003.81;4997337;28;45495;-81
2022/04/28 07:22:05;;;;;;;;;41.00;34.75;;;;;13.57;55.91;102015.97;4996353;28;45484;-81
2022/04/28 07:24:30;;;;;;;;;48.00;37.75;;;;;13.61;55.71;102010.41;4997331;28;45484;-82
2022/04/28 07:26:55;;;;;;;;;38.50;33.00;;;;;13.70;55.54;102001.03;4997361;28;45562;-81
2022/04/28 07:29:21;;;;;;;;;45.25;38.50;;;;;13.73;55.67;102005.38;4996133;28;45390;-81
2022/04/28 07:31:46;;;;;;;;;41.25;35.00;;;;;13.80;55.72;102004.97;4997841;28;45467;-82
2022/04/28 07:34:12;;;;;;;;;46.75;37.00;;;;;13.88;55.36;102009.09;4997151;28;46215;-82
2022/04/28 07:36:37;;;;;;;;;45.50;38.00;;;;;13.92;54.92;102014.22;4995712;28;46116;-81
2022/04/28 07:39:03;;;;;;;;;47.50;39.00;;;;;13.91;56.01;102009.81;4997473;28;45377;-81
2022/04/28 07:41:29;;;;;;;;;48.50;39.00;;;;;14.02;55.17;102006.59;4997370;28;45629;-82
2022/04/28 07:43:54;;;;;;;;;48.00;39.25;;;;;14.12;56.03;102013.25;4997682;28;46456;-81
2022/04/28 07:46:20;;;;;;;;;40.25;36.00;;;;;14.21;54.71;102007.38;5012281;28;45586;-81
2022/04/28 07:48:45;;;;;;;;;44.00;36.00;;;;;14.26;54.30;102018.75;4995712;28;45533;-81
2022/04/28 07:51:10;;;;;;;;;46.75;39.25;;;;;14.32;54.82;102017.56;4997015;28;46109;-81
2022/04/28 07:53:36;;;;;;;;;46.25;38.00;;;;;14.38;54.28;102019.94;4997035;28;45349;-81
2022/04/28 07:56:10;;;;;;;;;43.50;36.00;;;;;14.44;54.21;102019.63;4997788;28;45260;-81
2022/04/28 07:58:36;;;;;;;;;43.50;36.25;;;;;14.48;54.56;102014.97;4997071;28;45333;-81
2022/04/28 08:01:01;;;;;;;;;43.00;36.25;;;;;14.58;54.31;102015.41;4997176;28;45402;-81
2022/04/28 08:03:27;;;;;;;;;43.25;36.00;;;;;14.64;54.47;102023.09;4996810;28;46019;-81
2022/04/28 08:05:53;;;;;;;;;43.75;36.00;;;;;14.70;53.93;102020.09;4996753;28;45436;-81
2022/04/28 08:08:19;;;;;;;;;41.75;34.25;;;;;14.81;53.76;102020.38;4997202;28;45363;-81
2022/04/28 08:10:44;;;;;;;;;43.50;36.00;;;;;14.83;53.82;102031.03;4997512;28;45497;-81
2022/04/28 08:13:09;;;;;;;;;42.50;36.50;;;;;14.82;54.16;102026.63;4978574;28;48091;-82
2022/04/28 08:15:35;;;;;;;;;43.00;36.00;;;;;14.93;53.88;102031.41;4996893;28;45471;-81
2022/04/28 08:18:00;;;;;;;;;41.00;35.75;;;;;15.12;53.28;102026.78;4995752;28;45424;-82
2022/04/28 08:20:26;;;;;;;;;41.00;34.50;;;;;15.20;52.61;102029.91;4996595;28;45487;-82
2022/04/28 08:22:51;;;;;;;;;37.50;33.75;;;;;15.39;51.91;102031.56;4997311;28;45463;-81
2022/04/28 08:25:16;;;;;;;;;35.00;31.50;;;;;15.44;51.78;102025.00;4995115;28;46000;-82
2022/04/28 08:27:42;;;;;;;;;33.50;30.50;;;;;15.50;51.85;102018.44;4996508;28;45511;-81
2022/04/28 08:30:08;;;;;;;;;35.50;33.50;;;;;15.60;51.52;102029.50;4995263;28;45580;-82
2022/04/28 08:32:34;;;;;;;;;37.00;32.75;;;;;15.65;51.09;102022.91;4995252;28;48290;-81
2022/04/28 08:34:59;;;;;;;;;41.75;34.00;;;;;15.82;50.54;102029.19;4996734;28;45452;-82
2022/04/28 08:37:25;;;;;;;;;36.25;33.00;;;;;15.90;51.00;102035.84;4996361;28;45531;-82
2022/04/28 08:39:50;;;;;;;;;33.00;31.50;;;;;15.90;51.05;102035.00;4996543;28;45365;-82
2022/04/28 08:42:18;;;;;;;;;36.75;31.75;;;;;16.02;50.83;102026.22;4995058;28;48211;-82
2022/04/28 08:44:44;;;;;;;;;31.75;29.25;;;;;16.09;50.26;102046.41;4996375;28;45381;-82
2022/04/28 08:47:10;;;;;;;;;32.50;30.50;;;;;16.10;50.88;102031.13;4996639;28;45789;-82
2022/04/28 08:49:36;;;;;;;;;34.50;32.00;;;;;16.12;50.23;102034.59;4996202;28;45522;-82
2022/04/28 08:52:03;;;;;;;;;34.50;29.25;;;;;16.22;49.86;102029.53;4996080;28;45898;-81
2022/04/28 08:54:30;;;;;;;;;33.25;31.50;;;;;16.39;49.70;102034.78;4996078;28;45459;-82
2022/04/28 08:56:57;;;;;;;;;39.25;32.75;;;;;16.49;49.61;102038.63;4995019;28;45588;-81
2022/04/28 08:59:24;;;;;;;;;31.00;30.00;;;;;16.63;48.86;102031.56;4996369;28;45368;-81
2022/04/28 09:01:50;;;;;;;;;33.75;30.75;;;;;16.66;48.97;102039.44;4996612;28;45271;-82
2022/04/28 09:04:17;;;;;;;;;31.25;28.25;;;;;16.78;48.18;102036.00;4995639;28;45344;-82
2022/04/28 09:06:43;;;;;;;;;30.25;28.25;;;;;16.85;48.59;102028.47;4994677;28;45523;-81
2022/04/28 09:09:12;;;;;;;;;32.00;30.00;;;;;16.92;49.07;102030.66;4994754;28;45326;-82
2022/04/28 09:11:40;;;;;;;;;28.00;28.00;;;;;16.95;47.88;102027.78;4995748;28;47326;-82
2022/04/28 09:14:11;;;;;;;;;33.75;29.25;;;;;17.03;47.95;102017.41;4992589;28;45917;-82
2022/04/28 09:17:15;;;;;;;;;32.00;30.00;;;;;17.06;47.52;102024.44;4995913;28;45601;-82
2022/04/28 09:19:40;;;;;;;;;32.75;29.25;;;;;17.17;48.12;102026.41;4953758;28;45410;-82
2022/04/28 09:22:12;;;;;;;;;29.25;25.00;;;;;17.17;47.37;101999.50;4954202;28;46421;-82
2022/04/28 09:24:39;;;;;;;;;29.00;29.00;;;;;17.25;47.81;102010.66;4937325;28;45482;-82
2022/04/28 09:27:06;;;;;;;;;31.50;27.00;;;;;17.35;47.64;102017.19;4954355;28;45834;-82
2022/04/28 09:29:36;;;;;;;;;32.50;28.00;;;;;17.36;47.28;102004.59;4938037;28;45737;-82
2022/04/28 09:32:06;;;;;;;;;26.25;26.25;;;;;17.52;46.40;102008.03;4938454;28;47216;-82
2022/04/28 09:34:32;;;;;;;;;27.00;27.00;;;;;17.60;46.57;102010.19;4954061;28;45437;-82
2022/04/28 09:36:58;;;;;;;;;30.00;28.00;;;;;17.62;45.32;102003.75;4953852;28;45474;-81
2022/04/28 09:42:31;;;;;;;;;26.25;25.25;;;;;17.85;46.14;102007.66;4954119;28;45578;-81
2022/04/28 09:44:59;;;;;;;;;23.25;22.75;;;;;18.03;45.98;102002.00;4954075;28;45515;-82
2022/04/28 09:47:26;;;;;;;;;22.75;20.50;;;;;18.09;44.27;101998.91;4953622;28;45584;-82
2022/04/28 09:49:53;;;;;;;;;22.50;20.25;;;;;18.05;44.55;101997.38;4965509;28;45491;-82
2022/04/28 09:52:19;;;;;;;;;24.25;20.75;;;;;18.16;44.30;101997.53;4995027;28;46051;-82
2022/04/28 09:54:46;;;;;;;;;22.50;20.00;;;;;18.22;44.72;101986.31;4995166;28;45488;-82
2022/04/28 09:57:12;;;;;;;;;20.50;18.50;;;;;18.31;43.85;102001.00;5010357;28;45491;-81
2022/04/28 09:59:38;;;;;;;;;21.00;19.00;;;;;18.37;43.22;101980.81;4979919;28;45486;-82
2022/04/28 10:02:04;;;;;;;;;19.25;18.75;;;;;18.53;43.21;101994.97;4974528;28;48201;-82
2022/04/28 10:04:30;;;;;;;;;20.50;19.00;;;;;18.62;42.68;101977.31;4994611;28;45348;-82
2022/04/28 10:06:58;;;;;;;;;17.75;16.75;;;;;18.66;43.01;101982.34;4994934;28;45475;-82
2022/04/28 10:09:23;;;;;;;;;17.50;14.00;;;;;18.67;42.74;101984.09;4993304;28;45394;-82
2022/04/28 10:11:50;;;;;;;;;16.75;15.50;;;;;18.74;42.12;101981.81;5010183;28;45895;-82
2022/04/28 10:14:18;;;;;;;;;18.75;17.50;;;;;18.43;42.42;101913.88;4993839;28;45443;-83
2022/04/28 10:16:48;;;;;;;;;19.25;18.25;;;;;18.78;41.53;101933.94;4993939;28;45460;-83
2022/04/28 10:19:24;;;;;;;;;16.00;15.75;;;;;19.03;41.25;101958.19;4995135;28;45526;-83
2022/04/28 10:21:54;;;;;;;;;14.50;14.50;;;;;19.12;40.76;101972.81;4993449;28;47931;-83
2022/04/28 10:32:55;;;;;;;;;15.50;15.25;;;;;19.15;40.47;101976.19;4980552;28;45734;-83
2022/04/28 10:35:48;;;;;;;;;15.75;15.75;;;;;19.21;40.26;101969.47;4995043;28;45614;-84
2022/04/28 10:38:30;;;;;;;;;17.25;13.75;;;;;19.31;39.82;101966.94;4995698;28;45384;-84
2022/04/28 10:41:13;;;;;;;;;11.25;11.25;;;;;19.49;38.44;101962.91;4997679;28;45757;-84
2022/04/28 10:43:40;;;;;;;;;10.25;10.25;;;;;19.47;37.86;101928.88;4997057;28;45398;-84
2022/04/28 10:46:08;;;;;;;;;10.75;10.75;;;;;19.73;37.21;101957.53;4997666;28;45440;-84
2022/04/28 10:48:45;;;;;;;;;10.25;8.25;;;;;19.90;36.90;101955.41;4997888;28;45618;-84
2022/04/28 10:51:15;;;;;;;;;10.25;10.25;;;;;20.10;36.76;101951.16;4998118;28;45928;-84
2022/04/28 10:53:55;;;;;;;;;10.25;9.25;;;;;20.24;36.14;101940.13;4998064;28;45436;-85
2022/04/28 10:56:22;;;;;;;;;12.75;12.75;;;;;20.28;36.57;101955.16;4998088;28;45880;-85
2022/04/28 10:58:47;;;;;;;;;11.50;10.75;;;;;20.21;35.66;101919.59;4998275;28;45395;-84
2022/04/28 11:01:27;;;;;;;;;9.00;9.00;;;;;20.48;35.41;101953.56;4997464;28;45441;-85
2022/04/28 11:03:55;;;;;;;;;8.75;8.75;;;;;20.39;34.66;101924.53;4997568;28;45489;-85
2022/04/28 11:06:29;;;;;;;;;9.25;9.25;;;;;20.58;33.56;101953.75;4997742;28;45416;-84
2022/04/28 11:08:57;;;;;;;;;10.00;9.75;;;;;20.40;34.02;101935.25;4997828;28;45472;-84
2022/04/28 11:11:45;;;;;;;;;10.00;10.00;;;;;20.36;33.63;101928.34;5012927;28;45444;-86
2022/04/28 11:14:11;;;;;;;;;9.50;9.50;;;;;20.54;33.80;101952.22;4994094;28;46184;-84
2022/04/28 11:16:39;;;;;;;;;9.75;9.75;;;;;20.58;34.04;101946.47;4997581;28;45427;-85
2022/04/28 11:19:07;;;;;;;;;8.00;8.00;;;;;20.60;34.71;101939.09;4997528;28;45456;-85
2022/04/28 11:21:34;;;;;;;;;11.50;10.00;;;;;20.66;33.33;101940.47;4996186;28;45394;-85
2022/04/28 11:24:00;;;;;;;;;8.00;8.00;;;;;20.78;33.43;101942.19;4997288;28;46253;-86
2022/04/28 11:26:27;;;;;;;;;10.25;10.25;;;;;20.99;33.49;101944.16;4997328;28;45590;-85
2022/04/28 11:28:52;;;;;;;;;9.50;9.50;;;;;20.99;32.71;101939.59;4997417;28;45504;-86
2022/04/28 11:31:19;;;;;;;;;10.50;10.00;;;;;21.18;33.57;101941.66;4991252;28;45553;-85
2022/04/28 11:33:47;;;;;;;;;9.50;9.50;;;;;21.40;33.61;101962.44;4995122;28;45376;-85